Terminal Aerodrome Forecast
Issued by NWS Upton, NY

Home | Current Version | Previous Version | Text Only | Print | Product List | Glossary On
Versions: 1 2 3 4 5 6 7 8 9 10 11 12 13 14 15 16 17 18 19 20 21 22 23 24 25 26 27 28 29 30 31
578
FTUS41 KOKX 121847 AAB
TAFJFK
TAF AMD
KJFK 121847Z 1219/1324 26010G17KT P6SM VCSH SCT025 BKN040 BKN100
     FM130000 27018G26KT P6SM VCSH SCT025 BKN050 BKN100
     FM130300 30020G31KT P6SM VCSH FEW030 BKN050
     FM130700 28022G34KT P6SM SCT050 BKN100
     FM131300 28025G35KT P6SM BKN050
     FM132100 27021G30KT P6SM BKN050=

USA.gov is the U.S. government's official web portal to all federal, state and local government web resources and services.